sensor_id;sensor_type;location;lat;lon;timestamp;temperature;humidity
52656;SHT85;35474;51.032;6.998;2022-09-20T00:00:34;11.79;87.14
52656;SHT85;35474;51.032;6.998;2022-09-20T00:03:01;11.83;87.03
52656;SHT85;35474;51.032;6.998;2022-09-20T00:05:28;11.86;86.89
52656;SHT85;35474;51.032;6.998;2022-09-20T00:07:54;11.89;86.77
52656;SHT85;35474;51.032;6.998;2022-09-20T00:10:21;11.90;86.87
52656;SHT85;35474;51.032;6.998;2022-09-20T00:12:49;11.90;86.81
52656;SHT85;35474;51.032;6.998;2022-09-20T00:15:16;11.95;86.75
52656;SHT85;35474;51.032;6.998;2022-09-20T00:17:42;11.95;86.78
52656;SHT85;35474;51.032;6.998;2022-09-20T00:20:09;11.96;86.79
52656;SHT85;35474;51.032;6.998;2022-09-20T00:22:36;12.03;86.68
52656;SHT85;35474;51.032;6.998;2022-09-20T00:25:02;12.02;86.68
52656;SHT85;35474;51.032;6.998;2022-09-20T00:27:29;12.02;86.72
52656;SHT85;35474;51.032;6.998;2022-09-20T00:29:56;12.02;86.73
52656;SHT85;35474;51.032;6.998;2022-09-20T00:32:24;12.02;86.66
52656;SHT85;35474;51.032;6.998;2022-09-20T00:34:50;12.03;86.46
52656;SHT85;35474;51.032;6.998;2022-09-20T00:37:37;12.10;86.44
52656;SHT85;35474;51.032;6.998;2022-09-20T00:40:18;12.10;86.37
52656;SHT85;35474;51.032;6.998;2022-09-20T00:42:46;12.21;86.04
52656;SHT85;35474;51.032;6.998;2022-09-20T00:45:24;12.14;86.29
52656;SHT85;35474;51.032;6.998;2022-09-20T00:47:56;12.21;86.36
52656;SHT85;35474;51.032;6.998;2022-09-20T00:53:17;12.13;86.36
52656;SHT85;35474;51.032;6.998;2022-09-20T00:56:12;12.24;86.30
52656;SHT85;35474;51.032;6.998;2022-09-20T00:58:44;12.18;86.38
52656;SHT85;35474;51.032;6.998;2022-09-20T01:01:15;12.33;85.85
52656;SHT85;35474;51.032;6.998;2022-09-20T01:03:42;12.27;86.21
52656;SHT85;35474;51.032;6.998;2022-09-20T01:06:09;12.12;86.48
52656;SHT85;35474;51.032;6.998;2022-09-20T01:08:38;12.17;86.53
52656;SHT85;35474;51.032;6.998;2022-09-20T01:11:10;12.07;86.96
52656;SHT85;35474;51.032;6.998;2022-09-20T01:13:36;12.13;87.07
52656;SHT85;35474;51.032;6.998;2022-09-20T01:16:03;12.17;86.77
52656;SHT85;35474;51.032;6.998;2022-09-20T01:18:31;12.06;87.14
52656;SHT85;35474;51.032;6.998;2022-09-20T01:20:59;12.06;87.33
52656;SHT85;35474;51.032;6.998;2022-09-20T01:24:33;11.96;87.61
52656;SHT85;35474;51.032;6.998;2022-09-20T01:32:09;11.99;87.73
52656;SHT85;35474;51.032;6.998;2022-09-20T01:34:49;12.09;87.63
52656;SHT85;35474;51.032;6.998;2022-09-20T01:37:23;12.03;87.86
52656;SHT85;35474;51.032;6.998;2022-09-20T01:42:31;12.31;87.27
52656;SHT85;35474;51.032;6.998;2022-09-20T01:47:38;12.27;87.10
52656;SHT85;35474;51.032;6.998;2022-09-20T02:05:34;12.30;86.23
52656;SHT85;35474;51.032;6.998;2022-09-20T02:19:06;12.16;86.53
52656;SHT85;35474;51.032;6.998;2022-09-20T02:33:37;12.21;86.18
52656;SHT85;35474;51.032;6.998;2022-09-20T02:39:22;12.18;86.08
52656;SHT85;35474;51.032;6.998;2022-09-20T02:42:22;12.17;86.19
52656;SHT85;35474;51.032;6.998;2022-09-20T02:47:32;12.18;86.33
52656;SHT85;35474;51.032;6.998;2022-09-20T02:58:52;12.09;86.14
52656;SHT85;35474;51.032;6.998;2022-09-20T03:09:26;12.21;85.94
52656;SHT85;35474;51.032;6.998;2022-09-20T03:12:01;12.27;85.57
52656;SHT85;35474;51.032;6.998;2022-09-20T03:17:17;12.27;85.45
52656;SHT85;35474;51.032;6.998;2022-09-20T03:34:13;12.21;86.00
52656;SHT85;35474;51.032;6.998;2022-09-20T03:42:25;12.30;85.88
52656;SHT85;35474;51.032;6.998;2022-09-20T04:04:55;12.27;85.75
52656;SHT85;35474;51.032;6.998;2022-09-20T04:15:42;12.12;85.94
52656;SHT85;35474;51.032;6.998;2022-09-20T04:18:22;12.10;86.05
52656;SHT85;35474;51.032;6.998;2022-09-20T04:21:15;12.07;86.13
52656;SHT85;35474;51.032;6.998;2022-09-20T04:26:28;12.12;86.14
52656;SHT85;35474;51.032;6.998;2022-09-20T04:31:44;12.16;85.98
52656;SHT85;35474;51.032;6.998;2022-09-20T04:34:24;12.17;86.04
52656;SHT85;35474;51.032;6.998;2022-09-20T04:37:21;12.17;86.11
52656;SHT85;35474;51.032;6.998;2022-09-20T04:39:58;12.10;86.17
52656;SHT85;35474;51.032;6.998;2022-09-20T04:42:35;12.07;86.38
52656;SHT85;35474;51.032;6.998;2022-09-20T04:45:43;12.09;86.37
52656;SHT85;35474;51.032;6.998;2022-09-20T04:48:40;12.16;86.14
52656;SHT85;35474;51.032;6.998;2022-09-20T05:05:35;12.16;86.44
52656;SHT85;35474;51.032;6.998;2022-09-20T05:14:15;12.05;86.75
52656;SHT85;35474;51.032;6.998;2022-09-20T05:19:48;12.03;86.94
52656;SHT85;35474;51.032;6.998;2022-09-20T05:28:29;12.10;86.63
52656;SHT85;35474;51.032;6.998;2022-09-20T05:31:07;12.13;86.47
52656;SHT85;35474;51.032;6.998;2022-09-20T05:33:50;12.16;86.39
52656;SHT85;35474;51.032;6.998;2022-09-20T05:36:29;12.13;86.47
52656;SHT85;35474;51.032;6.998;2022-09-20T05:41:56;12.20;86.24
52656;SHT85;35474;51.032;6.998;2022-09-20T05:44:40;12.21;86.52
52656;SHT85;35474;51.032;6.998;2022-09-20T05:59:11;12.02;87.13
52656;SHT85;35474;51.032;6.998;2022-09-20T06:04:41;12.03;87.20
52656;SHT85;35474;51.032;6.998;2022-09-20T06:15:59;12.16;86.61
52656;SHT85;35474;51.032;6.998;2022-09-20T06:18:29;12.20;86.44
52656;SHT85;35474;51.032;6.998;2022-09-20T06:21:08;12.23;86.20
52656;SHT85;35474;51.032;6.998;2022-09-20T06:23:38;12.20;86.36
52656;SHT85;35474;51.032;6.998;2022-09-20T06:26:09;12.13;86.70
52656;SHT85;35474;51.032;6.998;2022-09-20T06:28:46;12.26;86.43
52656;SHT85;35474;51.032;6.998;2022-09-20T06:32:34;12.30;85.94
52656;SHT85;35474;51.032;6.998;2022-09-20T06:35:23;12.40;85.60
52656;SHT85;35474;51.032;6.998;2022-09-20T06:41:30;12.51;85.27
52656;SHT85;35474;51.032;6.998;2022-09-20T06:44:00;12.43;85.29
52656;SHT85;35474;51.032;6.998;2022-09-20T06:46:27;12.48;85.34
52656;SHT85;35474;51.032;6.998;2022-09-20T06:48:56;12.51;85.02
52656;SHT85;35474;51.032;6.998;2022-09-20T06:51:23;12.47;85.03
52656;SHT85;35474;51.032;6.998;2022-09-20T06:53:52;12.37;85.30
52656;SHT85;35474;51.032;6.998;2022-09-20T06:56:21;12.47;85.26
52656;SHT85;35474;51.032;6.998;2022-09-20T06:58:51;12.48;85.21
52656;SHT85;35474;51.032;6.998;2022-09-20T07:01:19;12.53;85.10
52656;SHT85;35474;51.032;6.998;2022-09-20T07:03:55;12.69;85.06
52656;SHT85;35474;51.032;6.998;2022-09-20T07:06:23;12.78;83.98
52656;SHT85;35474;51.032;6.998;2022-09-20T07:08:49;12.64;84.54
52656;SHT85;35474;51.032;6.998;2022-09-20T07:11:16;12.67;84.41
52656;SHT85;35474;51.032;6.998;2022-09-20T07:13:43;12.79;84.04
52656;SHT85;35474;51.032;6.998;2022-09-20T07:16:11;12.91;83.92
52656;SHT85;35474;51.032;6.998;2022-09-20T07:18:39;13.12;82.62
52656;SHT85;35474;51.032;6.998;2022-09-20T07:21:15;13.81;80.51
52656;SHT85;35474;51.032;6.998;2022-09-20T07:23:43;14.48;78.57
52656;SHT85;35474;51.032;6.998;2022-09-20T07:26:21;15.24;75.12
52656;SHT85;35474;51.032;6.998;2022-09-20T07:28:51;15.28;74.36
52656;SHT85;35474;51.032;6.998;2022-09-20T07:31:19;14.67;75.97
52656;SHT85;35474;51.032;6.998;2022-09-20T07:33:46;13.90;78.95
52656;SHT85;35474;51.032;6.998;2022-09-20T07:36:13;13.64;79.71
52656;SHT85;35474;51.032;6.998;2022-09-20T07:38:40;13.32;81.03
52656;SHT85;35474;51.032;6.998;2022-09-20T07:41:08;13.33;81.24
52656;SHT85;35474;51.032;6.998;2022-09-20T07:43:35;13.83;78.88
52656;SHT85;35474;51.032;6.998;2022-09-20T07:46:02;13.65;79.10
52656;SHT85;35474;51.032;6.998;2022-09-20T07:48:30;14.39;76.41
52656;SHT85;35474;51.032;6.998;2022-09-20T07:51:00;13.71;78.56
52656;SHT85;35474;51.032;6.998;2022-09-20T07:53:33;14.46;77.68
52656;SHT85;35474;51.032;6.998;2022-09-20T07:58:35;14.16;77.34
52656;SHT85;35474;51.032;6.998;2022-09-20T08:01:02;14.19;78.38
52656;SHT85;35474;51.032;6.998;2022-09-20T08:03:32;15.83;74.00
52656;SHT85;35474;51.032;6.998;2022-09-20T08:08:26;16.48;68.10
52656;SHT85;35474;51.032;6.998;2022-09-20T08:11:00;18.30;65.18
52656;SHT85;35474;51.032;6.998;2022-09-20T08:13:41;17.83;64.00
52656;SHT85;35474;51.032;6.998;2022-09-20T08:16:30;17.38;65.63
52656;SHT85;35474;51.032;6.998;2022-09-20T08:18:58;15.70;69.74
52656;SHT85;35474;51.032;6.998;2022-09-20T08:21:27;16.34;68.76
52656;SHT85;35474;51.032;6.998;2022-09-20T08:23:57;17.34;65.40
52656;SHT85;35474;51.032;6.998;2022-09-20T08:26:24;18.48;62.26
52656;SHT85;35474;51.032;6.998;2022-09-20T08:28:52;18.29;61.71
52656;SHT85;35474;51.032;6.998;2022-09-20T08:31:21;16.86;65.47
52656;SHT85;35474;51.032;6.998;2022-09-20T08:33:50;18.56;61.00
52656;SHT85;35474;51.032;6.998;2022-09-20T08:36:18;19.45;58.70
52656;SHT85;35474;51.032;6.998;2022-09-20T08:38:50;20.68;54.79
52656;SHT85;35474;51.032;6.998;2022-09-20T08:41:39;19.67;56.98
52656;SHT85;35474;51.032;6.998;2022-09-20T08:44:17;18.06;59.84
52656;SHT85;35474;51.032;6.998;2022-09-20T08:47:02;16.67;64.51
52656;SHT85;35474;51.032;6.998;2022-09-20T08:49:48;17.07;63.56
52656;SHT85;35474;51.032;6.998;2022-09-20T08:52:29;16.48;64.51
52656;SHT85;35474;51.032;6.998;2022-09-20T08:55:12;16.65;63.47
52656;SHT85;35474;51.032;6.998;2022-09-20T08:57:48;16.18;64.13
52656;SHT85;35474;51.032;6.998;2022-09-20T09:00:20;15.87;63.86
52656;SHT85;35474;51.032;6.998;2022-09-20T09:02:50;15.87;65.29
52656;SHT85;35474;51.032;6.998;2022-09-20T09:05:31;16.40;64.38
52656;SHT85;35474;51.032;6.998;2022-09-20T09:08:10;15.66;67.53
52656;SHT85;35474;51.032;6.998;2022-09-20T09:10:43;15.65;67.74
52656;SHT85;35474;51.032;6.998;2022-09-20T09:13:27;15.61;66.23
52656;SHT85;35474;51.032;6.998;2022-09-20T09:16:00;15.35;68.07
52656;SHT85;35474;51.032;6.998;2022-09-20T09:18:32;14.97;69.42
52656;SHT85;35474;51.032;6.998;2022-09-20T09:21:03;14.88;68.90
52656;SHT85;35474;51.032;6.998;2022-09-20T09:23:36;14.56;68.67
52656;SHT85;35474;51.032;6.998;2022-09-20T09:26:13;14.76;69.26
52656;SHT85;35474;51.032;6.998;2022-09-20T09:28:42;14.73;70.00
52656;SHT85;35474;51.032;6.998;2022-09-20T09:31:12;14.79;70.17
52656;SHT85;35474;51.032;6.998;2022-09-20T09:33:47;14.70;70.05
52656;SHT85;35474;51.032;6.998;2022-09-20T09:36:23;14.64;69.64
52656;SHT85;35474;51.032;6.998;2022-09-20T09:41:56;14.76;69.72
52656;SHT85;35474;51.032;6.998;2022-09-20T09:44:30;14.80;69.90
52656;SHT85;35474;51.032;6.998;2022-09-20T09:47:00;14.98;69.69
52656;SHT85;35474;51.032;6.998;2022-09-20T09:49:31;14.85;69.74
52656;SHT85;35474;51.032;6.998;2022-09-20T09:54:34;14.72;70.23
52656;SHT85;35474;51.032;6.998;2022-09-20T09:57:09;14.64;70.18
52656;SHT85;35474;51.032;6.998;2022-09-20T10:00:11;14.95;70.37
52656;SHT85;35474;51.032;6.998;2022-09-20T10:02:54;15.24;69.28
52656;SHT85;35474;51.032;6.998;2022-09-20T10:30:11;19.77;52.08
52656;SHT85;35474;51.032;6.998;2022-09-20T10:32:53;18.83;55.13
52656;SHT85;35474;51.032;6.998;2022-09-20T10:35:36;18.40;57.35
52656;SHT85;35474;51.032;6.998;2022-09-20T10:38:50;18.12;58.00
52656;SHT85;35474;51.032;6.998;2022-09-20T10:52:44;16.65;61.47
52656;SHT85;35474;51.032;6.998;2022-09-20T10:55:25;16.85;60.94
52656;SHT85;35474;51.032;6.998;2022-09-20T11:06:11;15.77;60.86
52656;SHT85;35474;51.032;6.998;2022-09-20T11:08:46;15.79;61.33
52656;SHT85;35474;51.032;6.998;2022-09-20T11:11:24;15.69;60.89
52656;SHT85;35474;51.032;6.998;2022-09-20T11:14:03;15.61;61.47
52656;SHT85;35474;51.032;6.998;2022-09-20T11:19:55;15.31;66.12
52656;SHT85;35474;51.032;6.998;2022-09-20T11:22:42;15.25;67.39
52656;SHT85;35474;51.032;6.998;2022-09-20T11:25:15;15.27;67.95
52656;SHT85;35474;51.032;6.998;2022-09-20T11:27:57;15.22;68.06
52656;SHT85;35474;51.032;6.998;2022-09-20T11:30:30;15.17;66.26
52656;SHT85;35474;51.032;6.998;2022-09-20T11:33:05;14.63;66.89
52656;SHT85;35474;51.032;6.998;2022-09-20T11:35:50;14.74;67.88
52656;SHT85;35474;51.032;6.998;2022-09-20T11:38:37;14.62;69.16
52656;SHT85;35474;51.032;6.998;2022-09-20T11:41:19;14.56;69.16
52656;SHT85;35474;51.032;6.998;2022-09-20T11:43:51;14.59;69.86
52656;SHT85;35474;51.032;6.998;2022-09-20T11:46:23;14.69;69.72
52656;SHT85;35474;51.032;6.998;2022-09-20T11:48:53;14.57;69.94
52656;SHT85;35474;51.032;6.998;2022-09-20T11:51:33;14.60;69.62
52656;SHT85;35474;51.032;6.998;2022-09-20T11:57:28;15.00;68.91
52656;SHT85;35474;51.032;6.998;2022-09-20T11:59:55;15.30;68.06
52656;SHT85;35474;51.032;6.998;2022-09-20T12:04:56;15.08;67.61
52656;SHT85;35474;51.032;6.998;2022-09-20T12:07:25;15.52;66.85
52656;SHT85;35474;51.032;6.998;2022-09-20T12:10:01;15.93;65.42
52656;SHT85;35474;51.032;6.998;2022-09-20T12:12:40;16.00;63.38
52656;SHT85;35474;51.032;6.998;2022-09-20T12:26:02;17.82;56.44
52656;SHT85;35474;51.032;6.998;2022-09-20T12:28:39;18.23;54.01
52656;SHT85;35474;51.032;6.998;2022-09-20T12:36:36;18.95;52.18
52656;SHT85;35474;51.032;6.998;2022-09-20T12:39:39;19.85;51.60
52656;SHT85;35474;51.032;6.998;2022-09-20T12:44:46;20.42;48.39
52656;SHT85;35474;51.032;6.998;2022-09-20T12:47:25;19.12;49.23
52656;SHT85;35474;51.032;6.998;2022-09-20T12:49:55;17.89;52.60
52656;SHT85;35474;51.032;6.998;2022-09-20T12:55:40;17.94;53.53
52656;SHT85;35474;51.032;6.998;2022-09-20T13:00:46;19.64;50.22
52656;SHT85;35474;51.032;6.998;2022-09-20T13:16:30;16.45;63.11
52656;SHT85;35474;51.032;6.998;2022-09-20T13:19:16;16.03;64.34
52656;SHT85;35474;51.032;6.998;2022-09-20T13:22:21;16.10;64.34
52656;SHT85;35474;51.032;6.998;2022-09-20T13:24:51;16.49;63.70
52656;SHT85;35474;51.032;6.998;2022-09-20T13:27:24;16.71;62.08
52656;SHT85;35474;51.032;6.998;2022-09-20T13:29:55;16.67;62.29
52656;SHT85;35474;51.032;6.998;2022-09-20T13:33:14;16.99;62.00
52656;SHT85;35474;51.032;6.998;2022-09-20T13:35:45;16.89;61.25
52656;SHT85;35474;51.032;6.998;2022-09-20T13:38:16;16.59;62.07
52656;SHT85;35474;51.032;6.998;2022-09-20T13:40:47;16.47;64.12
52656;SHT85;35474;51.032;6.998;2022-09-20T13:43:30;16.37;65.25
52656;SHT85;35474;51.032;6.998;2022-09-20T13:45:59;16.51;66.02
52656;SHT85;35474;51.032;6.998;2022-09-20T13:48:37;16.44;65.79
52656;SHT85;35474;51.032;6.998;2022-09-20T13:51:14;16.61;66.13
52656;SHT85;35474;51.032;6.998;2022-09-20T13:53:52;17.10;64.67
52656;SHT85;35474;51.032;6.998;2022-09-20T13:56:24;18.47;61.62
52656;SHT85;35474;51.032;6.998;2022-09-20T13:58:53;19.87;57.04
52656;SHT85;35474;51.032;6.998;2022-09-20T14:01:27;19.52;56.20
52656;SHT85;35474;51.032;6.998;2022-09-20T14:03:59;19.66;56.38
52656;SHT85;35474;51.032;6.998;2022-09-20T14:06:31;18.89;55.00
52656;SHT85;35474;51.032;6.998;2022-09-20T14:09:00;19.63;55.76
52656;SHT85;35474;51.032;6.998;2022-09-20T14:11:35;20.62;52.39
52656;SHT85;35474;51.032;6.998;2022-09-20T14:14:02;21.64;49.95
52656;SHT85;35474;51.032;6.998;2022-09-20T14:16:37;19.12;52.07
52656;SHT85;35474;51.032;6.998;2022-09-20T14:19:05;18.70;54.23
52656;SHT85;35474;51.032;6.998;2022-09-20T14:21:33;18.48;54.65
52656;SHT85;35474;51.032;6.998;2022-09-20T14:24:05;19.70;52.43
52656;SHT85;35474;51.032;6.998;2022-09-20T14:29:26;18.44;54.89
52656;SHT85;35474;51.032;6.998;2022-09-20T14:31:59;18.44;56.78
52656;SHT85;35474;51.032;6.998;2022-09-20T14:34:33;18.51;55.46
52656;SHT85;35474;51.032;6.998;2022-09-20T14:37:05;18.61;55.82
52656;SHT85;35474;51.032;6.998;2022-09-20T14:39:43;20.00;52.79
52656;SHT85;35474;51.032;6.998;2022-09-20T14:42:30;19.80;51.82
52656;SHT85;35474;51.032;6.998;2022-09-20T14:45:02;19.95;53.00
52656;SHT85;35474;51.032;6.998;2022-09-20T14:47:37;20.41;50.78
52656;SHT85;35474;51.032;6.998;2022-09-20T14:50:22;19.80;52.70
52656;SHT85;35474;51.032;6.998;2022-09-20T14:52:59;19.23;52.33
52656;SHT85;35474;51.032;6.998;2022-09-20T14:55:28;18.97;54.04
52656;SHT85;35474;51.032;6.998;2022-09-20T14:58:08;18.29;55.51
52656;SHT85;35474;51.032;6.998;2022-09-20T15:00:50;18.87;54.80
52656;SHT85;35474;51.032;6.998;2022-09-20T15:03:27;19.56;51.95
52656;SHT85;35474;51.032;6.998;2022-09-20T15:05:56;19.06;53.06
52656;SHT85;35474;51.032;6.998;2022-09-20T15:08:23;19.32;52.46
52656;SHT85;35474;51.032;6.998;2022-09-20T15:10:49;19.19;52.43
52656;SHT85;35474;51.032;6.998;2022-09-20T15:13:16;18.94;52.91
52656;SHT85;35474;51.032;6.998;2022-09-20T15:15:43;19.32;51.95
52656;SHT85;35474;51.032;6.998;2022-09-20T15:18:18;19.32;52.12
52656;SHT85;35474;51.032;6.998;2022-09-20T15:20:59;19.97;49.89
52656;SHT85;35474;51.032;6.998;2022-09-20T15:23:26;19.20;52.05
52656;SHT85;35474;51.032;6.998;2022-09-20T15:25:53;19.25;52.15
52656;SHT85;35474;51.032;6.998;2022-09-20T15:28:20;20.22;50.36
52656;SHT85;35474;51.032;6.998;2022-09-20T15:30:48;19.73;51.42
52656;SHT85;35474;51.032;6.998;2022-09-20T15:33:16;19.64;50.63
52656;SHT85;35474;51.032;6.998;2022-09-20T15:35:46;19.47;51.10
52656;SHT85;35474;51.032;6.998;2022-09-20T15:38:15;19.36;51.61
52656;SHT85;35474;51.032;6.998;2022-09-20T15:40:45;19.98;49.43
52656;SHT85;35474;51.032;6.998;2022-09-20T15:43:14;19.85;49.02
52656;SHT85;35474;51.032;6.998;2022-09-20T15:45:46;19.98;48.23
52656;SHT85;35474;51.032;6.998;2022-09-20T15:48:17;19.81;47.55
52656;SHT85;35474;51.032;6.998;2022-09-20T15:53:33;18.71;50.79
52656;SHT85;35474;51.032;6.998;2022-09-20T15:56:02;18.84;49.54
52656;SHT85;35474;51.032;6.998;2022-09-20T15:58:31;19.15;48.75
52656;SHT85;35474;51.032;6.998;2022-09-20T16:01:05;19.15;48.95
52656;SHT85;35474;51.032;6.998;2022-09-20T16:03:33;18.80;48.73
52656;SHT85;35474;51.032;6.998;2022-09-20T16:06:04;18.75;49.40
52656;SHT85;35474;51.032;6.998;2022-09-20T16:08:37;18.54;49.97
52656;SHT85;35474;51.032;6.998;2022-09-20T16:11:06;18.06;50.78
52656;SHT85;35474;51.032;6.998;2022-09-20T16:13:34;18.43;50.71
52656;SHT85;35474;51.032;6.998;2022-09-20T16:16:04;18.91;49.58
52656;SHT85;35474;51.032;6.998;2022-09-20T16:18:34;18.37;50.35
52656;SHT85;35474;51.032;6.998;2022-09-20T16:21:20;18.09;51.57
52656;SHT85;35474;51.032;6.998;2022-09-20T16:23:48;18.09;52.37
52656;SHT85;35474;51.032;6.998;2022-09-20T16:26:17;18.02;53.27
52656;SHT85;35474;51.032;6.998;2022-09-20T16:28:45;17.74;54.72
52656;SHT85;35474;51.032;6.998;2022-09-20T16:31:29;17.55;55.34
52656;SHT85;35474;51.032;6.998;2022-09-20T16:33:58;17.61;55.42
52656;SHT85;35474;51.032;6.998;2022-09-20T16:36:29;17.55;55.75
52656;SHT85;35474;51.032;6.998;2022-09-20T16:38:56;17.38;56.01
52656;SHT85;35474;51.032;6.998;2022-09-20T16:41:24;17.21;56.61
52656;SHT85;35474;51.032;6.998;2022-09-20T16:43:53;17.09;57.36
52656;SHT85;35474;51.032;6.998;2022-09-20T16:46:21;17.00;57.55
52656;SHT85;35474;51.032;6.998;2022-09-20T16:48:55;16.98;57.75
52656;SHT85;35474;51.032;6.998;2022-09-20T16:51:23;16.98;57.66
52656;SHT85;35474;51.032;6.998;2022-09-20T16:53:51;17.06;57.69
52656;SHT85;35474;51.032;6.998;2022-09-20T16:56:24;16.93;58.26
52656;SHT85;35474;51.032;6.998;2022-09-20T16:58:52;16.80;58.35
52656;SHT85;35474;51.032;6.998;2022-09-20T17:01:19;16.67;58.79
52656;SHT85;35474;51.032;6.998;2022-09-20T17:03:46;16.73;58.73
52656;SHT85;35474;51.032;6.998;2022-09-20T17:06:13;16.65;59.22
52656;SHT85;35474;51.032;6.998;2022-09-20T17:08:41;16.58;59.37
52656;SHT85;35474;51.032;6.998;2022-09-20T17:11:14;16.47;59.84
52656;SHT85;35474;51.032;6.998;2022-09-20T17:13:43;16.61;59.21
52656;SHT85;35474;51.032;6.998;2022-09-20T17:16:11;16.47;59.90
52656;SHT85;35474;51.032;6.998;2022-09-20T17:18:42;16.48;59.93
52656;SHT85;35474;51.032;6.998;2022-09-20T17:21:12;16.40;60.25
52656;SHT85;35474;51.032;6.998;2022-09-20T17:23:40;16.35;60.70
52656;SHT85;35474;51.032;6.998;2022-09-20T17:26:16;16.34;60.84
52656;SHT85;35474;51.032;6.998;2022-09-20T17:28:45;16.25;60.74
52656;SHT85;35474;51.032;6.998;2022-09-20T17:31:14;16.27;61.09
52656;SHT85;35474;51.032;6.998;2022-09-20T17:33:41;15.96;61.61
52656;SHT85;35474;51.032;6.998;2022-09-20T17:36:11;15.77;62.27
52656;SHT85;35474;51.032;6.998;2022-09-20T17:38:40;15.66;62.43
52656;SHT85;35474;51.032;6.998;2022-09-20T17:41:10;15.55;63.09
52656;SHT85;35474;51.032;6.998;2022-09-20T17:43:39;15.51;63.45
52656;SHT85;35474;51.032;6.998;2022-09-20T17:46:11;15.25;64.39
52656;SHT85;35474;51.032;6.998;2022-09-20T17:48:49;15.21;65.08
52656;SHT85;35474;51.032;6.998;2022-09-20T17:51:18;15.04;65.29
52656;SHT85;35474;51.032;6.998;2022-09-20T17:53:45;15.11;65.10
52656;SHT85;35474;51.032;6.998;2022-09-20T17:57:34;15.14;65.71
52656;SHT85;35474;51.032;6.998;2022-09-20T18:00:02;15.14;65.88
52656;SHT85;35474;51.032;6.998;2022-09-20T18:02:29;15.15;66.18
52656;SHT85;35474;51.032;6.998;2022-09-20T18:04:55;15.15;66.14
52656;SHT85;35474;51.032;6.998;2022-09-20T18:07:22;15.31;65.47
52656;SHT85;35474;51.032;6.998;2022-09-20T18:09:48;15.17;66.41
52656;SHT85;35474;51.032;6.998;2022-09-20T18:12:15;15.35;66.30
52656;SHT85;35474;51.032;6.998;2022-09-20T18:14:46;15.22;66.65
52656;SHT85;35474;51.032;6.998;2022-09-20T18:17:12;15.34;66.38
52656;SHT85;35474;51.032;6.998;2022-09-20T18:19:39;15.15;66.37
52656;SHT85;35474;51.032;6.998;2022-09-20T18:22:08;15.03;66.98
52656;SHT85;35474;51.032;6.998;2022-09-20T18:24:34;15.04;67.34
52656;SHT85;35474;51.032;6.998;2022-09-20T18:27:01;15.08;66.96
52656;SHT85;35474;51.032;6.998;2022-09-20T18:29:27;15.15;67.08
52656;SHT85;35474;51.032;6.998;2022-09-20T18:31:54;15.12;66.80
52656;SHT85;35474;51.032;6.998;2022-09-20T18:34:25;15.12;67.04
52656;SHT85;35474;51.032;6.998;2022-09-20T18:36:56;15.18;67.13
52656;SHT85;35474;51.032;6.998;2022-09-20T18:41:51;15.21;67.41
52656;SHT85;35474;51.032;6.998;2022-09-20T18:44:18;14.98;68.50
52656;SHT85;35474;51.032;6.998;2022-09-20T18:46:46;14.80;69.34
52656;SHT85;35474;51.032;6.998;2022-09-20T18:49:13;14.90;69.69
52656;SHT85;35474;51.032;6.998;2022-09-20T18:51:41;14.81;69.94
52656;SHT85;35474;51.032;6.998;2022-09-20T18:54:09;14.64;70.11
52656;SHT85;35474;51.032;6.998;2022-09-20T18:56:39;14.60;70.57
52656;SHT85;35474;51.032;6.998;2022-09-20T18:59:12;14.48;70.90
52656;SHT85;35474;51.032;6.998;2022-09-20T19:04:46;14.40;70.88
52656;SHT85;35474;51.032;6.998;2022-09-20T19:12:43;14.01;72.62
52656;SHT85;35474;51.032;6.998;2022-09-20T19:24:19;13.88;73.70
52656;SHT85;35474;51.032;6.998;2022-09-20T19:26:55;13.97;73.04
52656;SHT85;35474;51.032;6.998;2022-09-20T19:29:22;13.83;73.87
52656;SHT85;35474;51.032;6.998;2022-09-20T19:31:51;13.80;74.01
52656;SHT85;35474;51.032;6.998;2022-09-20T19:34:21;13.87;73.73
52656;SHT85;35474;51.032;6.998;2022-09-20T19:37:07;13.85;74.18
52656;SHT85;35474;51.032;6.998;2022-09-20T19:42:34;13.77;74.85
52656;SHT85;35474;51.032;6.998;2022-09-20T19:50:45;13.46;75.84
52656;SHT85;35474;51.032;6.998;2022-09-20T19:53:15;13.46;75.53
52656;SHT85;35474;51.032;6.998;2022-09-20T19:55:47;13.64;74.90
52656;SHT85;35474;51.032;6.998;2022-09-20T19:58:18;13.46;76.04
52656;SHT85;35474;51.032;6.998;2022-09-20T20:00:45;13.39;76.17
52656;SHT85;35474;51.032;6.998;2022-09-20T20:03:13;13.26;76.55
52656;SHT85;35474;51.032;6.998;2022-09-20T20:05:51;13.23;76.81
52656;SHT85;35474;51.032;6.998;2022-09-20T20:08:22;13.03;77.86
52656;SHT85;35474;51.032;6.998;2022-09-20T20:22:10;12.98;78.90
52656;SHT85;35474;51.032;6.998;2022-09-20T20:24:53;13.07;78.42
52656;SHT85;35474;51.032;6.998;2022-09-20T20:27:21;12.93;78.85
52656;SHT85;35474;51.032;6.998;2022-09-20T20:29:50;13.00;78.42
52656;SHT85;35474;51.032;6.998;2022-09-20T20:32:17;12.86;78.87
52656;SHT85;35474;51.032;6.998;2022-09-20T20:34:43;12.78;79.53
52656;SHT85;35474;51.032;6.998;2022-09-20T20:37:10;12.79;79.17
52656;SHT85;35474;51.032;6.998;2022-09-20T20:39:36;12.68;79.88
52656;SHT85;35474;51.032;6.998;2022-09-20T20:42:03;12.60;80.13
52656;SHT85;35474;51.032;6.998;2022-09-20T20:44:32;12.43;80.80
52656;SHT85;35474;51.032;6.998;2022-09-20T20:47:02;12.26;81.51
52656;SHT85;35474;51.032;6.998;2022-09-20T20:49:30;12.14;82.18
52656;SHT85;35474;51.032;6.998;2022-09-20T20:51:57;12.03;82.83
52656;SHT85;35474;51.032;6.998;2022-09-20T20:54:27;12.00;82.80
52656;SHT85;35474;51.032;6.998;2022-09-20T20:56:54;12.06;83.23
52656;SHT85;35474;51.032;6.998;2022-09-20T20:59:20;12.10;83.21
52656;SHT85;35474;51.032;6.998;2022-09-20T21:01:47;11.95;83.45
52656;SHT85;35474;51.032;6.998;2022-09-20T21:04:13;11.86;83.65
52656;SHT85;35474;51.032;6.998;2022-09-20T21:06:41;11.79;83.95
52656;SHT85;35474;51.032;6.998;2022-09-20T21:09:08;11.65;84.31
52656;SHT85;35474;51.032;6.998;2022-09-20T21:11:36;11.61;84.77
52656;SHT85;35474;51.032;6.998;2022-09-20T21:14:04;11.52;84.97
52656;SHT85;35474;51.032;6.998;2022-09-20T21:16:33;11.48;85.27
52656;SHT85;35474;51.032;6.998;2022-09-20T21:19:01;11.48;85.66
52656;SHT85;35474;51.032;6.998;2022-09-20T21:21:31;11.58;85.44
52656;SHT85;35474;51.032;6.998;2022-09-20T21:23:59;11.49;85.63
52656;SHT85;35474;51.032;6.998;2022-09-20T21:26:28;11.52;85.79
52656;SHT85;35474;51.032;6.998;2022-09-20T21:28:59;11.34;86.26
52656;SHT85;35474;51.032;6.998;2022-09-20T21:31:28;11.30;86.26
52656;SHT85;35474;51.032;6.998;2022-09-20T21:33:56;11.28;86.30
52656;SHT85;35474;51.032;6.998;2022-09-20T21:36:24;11.27;86.39
52656;SHT85;35474;51.032;6.998;2022-09-20T21:38:52;11.38;86.69
52656;SHT85;35474;51.032;6.998;2022-09-20T21:41:20;11.41;86.42
52656;SHT85;35474;51.032;6.998;2022-09-20T21:43:50;11.47;86.20